Time;durP1;ratioP1;P1;durP2;ratioP2;P2;SDS_P1;SDS_P2;PMS_P1;PMS_P2;Temp;Humidity;BMP_temperature;BMP_pressure;BME280_temperature;BME280_humidity;BME280_pressure;Samples;Min_cycle;Max_cycle;Signal;HPM_P1;HPM_P2
2021/07/07 15:23:04;;;;;;;7.53;1.90;;;;;;;;;;10466863;28;20414;-61
2021/07/07 15:34:38;;;;;;;6.60;1.80;;;;;;;24.21;42.17;99889.31;10477933;27;20427;-61
2021/07/07 15:39:40;;;;;;;7.78;1.70;;;;;;;24.67;40.29;99890.03;10476552;28;20480;-61
2021/07/07 15:47:54;;;;;;;6.22;1.77;;;;;;;24.74;42.16;99896.31;10455338;28;20474;-62
2021/07/07 15:52:57;;;;;;;5.53;1.70;;;;;;;24.80;40.89;99895.59;10437725;28;20103;-62
2021/07/07 16:02:03;;;;;;;7.28;2.03;;;;;;;27.44;42.28;99893.16;10505790;28;20865;-61
2021/07/07 16:07:05;;;;;;;5.68;1.80;;;;;;;27.66;41.39;99891.34;10435047;28;20133;-62
2021/07/07 16:12:07;;;;;;;5.10;1.75;;;;;;;27.68;39.61;99889.31;10436116;28;20099;-62
2021/07/07 16:17:09;;;;;;;4.72;1.80;;;;;;;27.73;41.29;99887.72;10433606;28;20498;-61
2021/07/07 16:22:10;;;;;;;8.23;1.90;;;;;;;27.58;42.50;99894.97;10435249;28;20141;-62
2021/07/07 16:27:12;;;;;;;5.82;1.70;;;;;;;27.30;43.19;99890.47;10429865;28;20128;-62
2021/07/07 16:32:14;;;;;;;7.03;1.77;;;;;;;27.30;42.44;99891.31;10410993;28;20409;-62
2021/07/07 16:37:16;;;;;;;5.05;1.85;;;;;;;27.66;41.16;99886.00;10414965;28;20493;-61
2021/07/07 16:42:18;;;;;;;9.43;1.80;;;;;;;27.98;39.55;99892.75;10427580;28;20056;-61
2021/07/07 16:47:20;;;;;;;7.30;1.90;;;;;;;28.11;39.72;99891.03;10426248;28;20080;-62
2021/07/07 16:52:22;;;;;;;7.40;1.95;;;;;;;27.88;38.26;99898.38;10432071;28;20069;-61
2021/07/07 16:57:23;;;;;;;6.28;2.10;;;;;;;27.60;39.99;99892.94;10448095;28;20045;-62
2021/07/07 17:02:25;;;;;;;10.82;2.47;;;;;;;27.56;38.87;99886.31;10405765;28;20052;-61
2021/07/07 17:07:27;;;;;;;7.40;2.25;;;;;;;27.83;37.99;99882.88;10422065;28;20132;-61
2021/07/07 17:12:28;;;;;;;6.90;2.00;;;;;;;27.87;38.22;99891.38;10407729;28;20077;-61
2021/07/07 17:17:30;;;;;;;5.60;2.00;;;;;;;27.66;38.67;99897.53;10416552;28;20111;-61
2021/07/07 17:25:39;;;;;;;6.65;2.00;;;;;;;25.10;39.25;99903.63;10551857;27;20874;-75
2021/07/07 17:30:41;;;;;;;8.95;1.95;;;;;;;24.81;40.20;99907.13;10562887;28;20453;-77
2021/07/07 17:35:43;;;;;;;5.40;1.90;;;;;;;24.65;41.60;99907.25;10561137;28;20127;-77
2021/07/07 17:40:44;;;;;;;7.03;2.15;;;;;;;24.56;41.83;99913.69;10591511;28;20123;-77
2021/07/07 17:45:46;;;;;;;6.25;1.80;;;;;;;24.86;41.31;99926.09;10530758;28;20072;-77
2021/07/07 17:50:48;;;;;;;5.45;1.70;;;;;;;25.12;41.79;99931.03;10544575;28;20102;-77
2021/07/07 17:55:50;;;;;;;6.00;2.05;;;;;;;24.76;42.44;99938.91;10577575;28;20139;-77
2021/07/07 18:00:52;;;;;;;5.72;1.83;;;;;;;24.35;43.98;99932.25;10556651;28;20067;-77
2021/07/07 18:05:54;;;;;;;7.63;1.98;;;;;;;24.18;45.03;99934.19;10543871;28;20135;-77
2021/07/07 18:10:57;;;;;;;6.22;1.80;;;;;;;24.21;45.24;99941.88;10562585;28;20542;-76
2021/07/07 18:15:59;;;;;;;7.85;1.90;;;;;;;24.12;45.27;99942.94;10560564;28;20180;-77
2021/07/07 18:21:02;;;;;;;6.85;1.90;;;;;;;24.00;46.37;99941.66;10543517;28;20592;-77
2021/07/07 18:26:04;;;;;;;7.97;1.92;;;;;;;23.75;47.04;99940.16;10401694;27;86829;-77
2021/07/07 18:31:06;;;;;;;9.50;2.00;;;;;;;23.62;46.64;99936.38;10359646;28;20053;-77
2021/07/07 18:36:08;;;;;;;5.50;2.00;;;;;;;23.51;47.81;99942.13;10369845;28;20414;-77
2021/07/07 18:41:10;;;;;;;9.98;1.92;;;;;;;23.31;48.92;99949.66;10368713;28;20096;-76
2021/07/07 18:46:12;;;;;;;7.35;2.10;;;;;;;22.96;49.93;99953.63;10368461;28;20132;-77
2021/07/07 18:51:14;;;;;;;10.18;2.13;;;;;;;22.72;50.77;99960.81;10365795;28;20053;-77
2021/07/07 18:56:16;;;;;;;9.95;2.28;;;;;;;22.51;51.08;99975.47;10379257;28;20096;-77
2021/07/07 19:01:18;;;;;;;8.10;2.17;;;;;;;22.25;52.21;99969.44;10366082;28;20125;-77
2021/07/07 19:06:23;;;;;;;8.52;2.22;;;;;;;22.00;53.26;99970.38;10367644;28;20129;-77
2021/07/07 19:11:27;;;;;;;9.27;2.10;;;;;;;21.77;53.27;99974.66;10365261;28;20080;-77
2021/07/07 19:16:29;;;;;;;6.65;2.33;;;;;;;21.49;54.50;99986.53;10365977;28;20065;-77
2021/07/07 19:21:32;;;;;;;4.80;2.00;;;;;;;21.28;54.70;99972.75;10368469;28;20077;-76
2021/07/07 19:26:35;;;;;;;10.57;2.40;;;;;;;21.18;55.32;99983.50;10350218;28;20050;-76
2021/07/07 19:31:38;;;;;;;10.45;2.10;;;;;;;21.06;55.22;99996.25;10344417;28;20045;-76
2021/07/07 19:36:40;;;;;;;7.20;2.33;;;;;;;21.04;55.71;99998.25;10362506;28;20042;-76
2021/07/07 19:41:42;;;;;;;7.50;2.45;;;;;;;20.86;56.06;100004.59;10366260;28;20073;-76
2021/07/07 19:46:44;;;;;;;21.73;2.90;;;;;;;20.79;56.25;100007.03;10364559;28;20093;-76
2021/07/07 19:51:46;;;;;;;7.20;2.10;;;;;;;20.74;56.32;100013.81;10366437;28;20049;-76
2021/07/07 19:56:48;;;;;;;7.50;2.30;;;;;;;20.77;56.24;100013.47;10382695;28;20447;-75
2021/07/07 20:01:50;;;;;;;9.52;2.00;;;;;;;20.59;55.86;100029.44;10365102;28;20081;-75
2021/07/07 20:06:52;;;;;;;7.07;2.10;;;;;;;20.38;55.96;100025.41;10365962;28;20046;-75
2021/07/07 20:11:54;;;;;;;5.88;2.20;;;;;;;20.28;56.72;100039.59;10365800;28;20157;-76
2021/07/07 20:16:55;;;;;;;8.02;2.53;;;;;;;20.12;56.63;100039.44;10364970;28;20522;-75
2021/07/07 20:21:57;;;;;;;7.72;2.60;;;;;;;19.95;57.31;100036.75;10365442;28;20081;-76
2021/07/07 20:26:59;;;;;;;8.55;2.60;;;;;;;19.80;57.87;100046.16;10363948;28;20136;-76
2021/07/07 20:32:00;;;;;;;7.28;2.50;;;;;;;19.55;58.10;100060.06;10363148;28;20050;-75
2021/07/07 20:37:03;;;;;;;7.88;2.72;;;;;;;19.48;58.63;100061.66;10364128;28;20141;-76
2021/07/07 20:42:06;;;;;;;5.93;2.40;;;;;;;19.36;58.58;100059.16;10364835;28;20147;-75
2021/07/07 20:47:08;;;;;;;7.20;2.78;;;;;;;19.22;59.07;100069.38;10364862;28;20113;-76
2021/07/07 20:52:11;;;;;;;7.68;2.60;;;;;;;19.05;58.85;100068.34;10363793;28;20399;-76
2021/07/07 20:57:12;;;;;;;8.73;2.58;;;;;;;18.93;58.81;100065.94;10366545;28;20050;-76
2021/07/07 21:02:14;;;;;;;6.10;2.45;;;;;;;18.88;58.96;100069.00;10364155;28;20125;-76
2021/07/07 21:07:17;;;;;;;11.75;2.72;;;;;;;18.86;59.00;100076.25;10361090;28;20058;-76
2021/07/07 21:12:22;;;;;;;8.90;2.97;;;;;;;18.68;59.57;100075.28;10364273;28;20120;-76
2021/07/07 21:17:23;;;;;;;8.73;3.10;;;;;;;18.61;59.87;100074.16;10362361;28;20053;-76
2021/07/07 21:22:25;;;;;;;11.93;3.30;;;;;;;18.52;60.03;100083.78;10364728;28;20456;-76
2021/07/07 21:27:27;;;;;;;9.45;2.72;;;;;;;18.40;60.22;100081.41;10363009;28;20570;-76
2021/07/07 21:32:28;;;;;;;11.82;3.13;;;;;;;18.27;60.39;100100.19;10364429;28;20560;-76
2021/07/07 21:37:30;;;;;;;8.50;2.80;;;;;;;17.81;60.95;100105.19;10363737;28;20050;-76
2021/07/07 21:42:32;;;;;;;8.57;2.88;;;;;;;17.42;62.23;100112.09;10364124;28;20160;-76
2021/07/07 21:47:34;;;;;;;8.45;3.33;;;;;;;17.55;62.08;100115.34;10363570;28;20476;-76
2021/07/07 21:52:37;;;;;;;9.82;2.90;;;;;;;17.57;62.22;100117.84;10363395;28;20050;-76
2021/07/07 21:57:48;;;;;;;10.27;2.95;;;;;;;17.62;62.20;100123.59;10364396;28;20136;-76
2021/07/07 22:02:51;;;;;;;14.13;3.30;;;;;;;17.67;61.87;100127.53;10363611;28;20156;-76
2021/07/07 22:07:53;;;;;;;11.35;3.10;;;;;;;17.58;61.79;100133.63;10363221;28;20117;-76
2021/07/07 22:12:55;;;;;;;10.65;3.03;;;;;;;17.55;61.72;100144.44;10371913;28;20052;-76
2021/07/07 22:17:57;;;;;;;8.15;3.20;;;;;;;17.41;62.03;100139.50;10370274;28;20081;-76
2021/07/07 22:22:59;;;;;;;14.90;3.00;;;;;;;17.25;62.35;100157.59;10370386;28;20056;-76
2021/07/07 22:28:01;;;;;;;8.73;2.90;;;;;;;17.22;62.14;100162.28;10370358;28;20081;-76
2021/07/07 22:33:07;;;;;;;9.82;2.78;;;;;;;17.19;62.33;100165.19;10369010;28;20074;-76
2021/07/07 22:38:09;;;;;;;9.90;3.03;;;;;;;17.10;62.07;100164.13;10347339;28;20053;-77
2021/07/07 22:43:13;;;;;;;7.00;2.92;;;;;;;17.06;62.11;100162.72;10369357;28;20077;-77
2021/07/07 22:48:16;;;;;;;10.65;3.40;;;;;;;16.99;62.78;100166.84;10383103;28;20144;-77
2021/07/07 22:53:20;;;;;;;11.20;2.83;;;;;;;16.97;62.84;100161.69;10368401;28;20049;-77
2021/07/07 22:58:22;;;;;;;9.38;2.92;;;;;;;16.95;62.68;100166.25;10387113;28;20140;-77
2021/07/07 23:03:24;;;;;;;12.48;3.30;;;;;;;16.95;62.88;100155.69;10367343;28;20141;-77
2021/07/07 23:08:27;;;;;;;9.65;2.90;;;;;;;16.96;62.50;100162.63;10368176;28;20077;-77
2021/07/07 23:13:30;;;;;;;8.52;3.30;;;;;;;16.90;62.13;100162.31;10367542;28;20046;-77
2021/07/07 23:18:32;;;;;;;10.20;3.00;;;;;;;16.79;62.15;100155.25;10366969;28;20052;-77
2021/07/07 23:23:34;;;;;;;10.27;3.25;;;;;;;16.65;62.35;100155.53;10352019;28;20138;-77
2021/07/07 23:28:36;;;;;;;13.55;3.38;;;;;;;16.53;62.67;100164.44;10367016;28;20458;-77
2021/07/07 23:33:37;;;;;;;6.00;3.13;;;;;;;16.54;62.60;100173.22;10366756;28;20088;-77
2021/07/07 23:38:39;;;;;;;7.95;3.00;;;;;;;16.50;62.65;100174.44;10365747;28;20438;-77
2021/07/07 23:43:41;;;;;;;5.90;2.80;;;;;;;16.41;62.74;100173.31;10365006;28;20077;-77
2021/07/07 23:48:42;;;;;;;11.13;3.88;;;;;;;16.15;63.03;100172.78;10364974;28;20561;-77
2021/07/07 23:53:44;;;;;;;5.57;2.88;;;;;;;16.02;63.71;100177.31;10366354;28;20165;-77
2021/07/07 23:58:46;;;;;;;8.48;3.15;;;;;;;16.04;63.49;100175.41;10379933;28;20081;-77
